sensor_id;sensor_type;location;lat;lon;timestamp;P1;durP1;ratioP1;P2;durP2;ratioP2
11279;SDS011;5696;50.928;6.960;2022-08-23T05:01:58;9.50;;;6.07;;
11279;SDS011;5696;50.928;6.960;2022-08-23T05:04:24;7.18;;;6.25;;
11279;SDS011;5696;50.928;6.960;2022-08-23T05:06:50;7.20;;;6.25;;
11279;SDS011;5696;50.928;6.960;2022-08-23T05:09:16;7.20;;;6.60;;
11279;SDS011;5696;50.928;6.960;2022-08-23T05:11:42;8.02;;;6.30;;
11279;SDS011;5696;50.928;6.960;2022-08-23T05:14:07;6.65;;;6.03;;
11279;SDS011;5696;50.928;6.960;2022-08-23T05:16:33;8.85;;;6.78;;
11279;SDS011;5696;50.928;6.960;2022-08-23T05:18:58;7.40;;;6.50;;
11279;SDS011;5696;50.928;6.960;2022-08-23T05:21:24;7.28;;;6.25;;
11279;SDS011;5696;50.928;6.960;2022-08-23T05:23:50;9.02;;;6.43;;
11279;SDS011;5696;50.928;6.960;2022-08-23T05:26:16;7.07;;;5.88;;
11279;SDS011;5696;50.928;6.960;2022-08-23T05:28:43;7.75;;;6.30;;
11279;SDS011;5696;50.928;6.960;2022-08-23T05:31:22;7.25;;;6.47;;
11279;SDS011;5696;50.928;6.960;2022-08-23T05:33:50;9.32;;;6.35;;
11279;SDS011;5696;50.928;6.960;2022-08-23T05:36:17;8.32;;;6.70;;
11279;SDS011;5696;50.928;6.960;2022-08-23T05:38:43;8.20;;;6.40;;
11279;SDS011;5696;50.928;6.960;2022-08-23T05:41:11;6.50;;;5.72;;
11279;SDS011;5696;50.928;6.960;2022-08-23T05:43:38;6.15;;;5.55;;
11279;SDS011;5696;50.928;6.960;2022-08-23T05:46:09;10.07;;;6.35;;
11279;SDS011;5696;50.928;6.960;2022-08-23T05:48:36;9.45;;;6.50;;
11279;SDS011;5696;50.928;6.960;2022-08-23T05:51:07;7.63;;;6.03;;
11279;SDS011;5696;50.928;6.960;2022-08-23T05:53:38;7.20;;;6.50;;
11279;SDS011;5696;50.928;6.960;2022-08-23T05:58:41;7.00;;;5.60;;
11279;SDS011;5696;50.928;6.960;2022-08-23T06:01:07;8.90;;;5.60;;
11279;SDS011;5696;50.928;6.960;2022-08-23T06:03:35;6.53;;;5.82;;
11279;SDS011;5696;50.928;6.960;2022-08-23T06:06:01;8.48;;;6.43;;
11279;SDS011;5696;50.928;6.960;2022-08-23T06:08:27;7.20;;;5.45;;
11279;SDS011;5696;50.928;6.960;2022-08-23T06:11:04;9.02;;;5.50;;
11279;SDS011;5696;50.928;6.960;2022-08-23T06:13:32;5.88;;;5.07;;
11279;SDS011;5696;50.928;6.960;2022-08-23T06:15:59;8.77;;;5.35;;
11279;SDS011;5696;50.928;6.960;2022-08-23T06:18:25;6.10;;;5.28;;
11279;SDS011;5696;50.928;6.960;2022-08-23T06:21:02;5.57;;;4.97;;
11279;SDS011;5696;50.928;6.960;2022-08-23T06:23:29;7.53;;;4.97;;
11279;SDS011;5696;50.928;6.960;2022-08-23T06:25:56;10.02;;;5.40;;
11279;SDS011;5696;50.928;6.960;2022-08-23T06:28:22;6.93;;;4.57;;
11279;SDS011;5696;50.928;6.960;2022-08-23T06:30:48;7.72;;;4.90;;
11279;SDS011;5696;50.928;6.960;2022-08-23T06:33:17;5.25;;;4.75;;
11279;SDS011;5696;50.928;6.960;2022-08-23T06:35:42;7.13;;;4.68;;
11279;SDS011;5696;50.928;6.960;2022-08-23T06:38:08;4.50;;;4.13;;
11279;SDS011;5696;50.928;6.960;2022-08-23T06:40:34;6.80;;;4.70;;
11279;SDS011;5696;50.928;6.960;2022-08-23T06:43:00;6.53;;;4.22;;
11279;SDS011;5696;50.928;6.960;2022-08-23T06:45:26;7.25;;;4.57;;
11279;SDS011;5696;50.928;6.960;2022-08-23T06:47:52;6.75;;;5.18;;
11279;SDS011;5696;50.928;6.960;2022-08-23T06:50:18;5.72;;;4.53;;
11279;SDS011;5696;50.928;6.960;2022-08-23T06:52:46;6.75;;;4.70;;
11279;SDS011;5696;50.928;6.960;2022-08-23T06:55:12;5.53;;;4.80;;
11279;SDS011;5696;50.928;6.960;2022-08-23T06:57:38;6.93;;;5.32;;
11279;SDS011;5696;50.928;6.960;2022-08-23T07:00:05;5.57;;;4.43;;
11279;SDS011;5696;50.928;6.960;2022-08-23T07:02:32;6.15;;;4.75;;
11279;SDS011;5696;50.928;6.960;2022-08-23T07:04:58;5.75;;;4.15;;
11279;SDS011;5696;50.928;6.960;2022-08-23T07:07:23;7.88;;;4.13;;
11279;SDS011;5696;50.928;6.960;2022-08-23T07:09:49;8.57;;;4.55;;
11279;SDS011;5696;50.928;6.960;2022-08-23T07:12:15;8.32;;;4.45;;
11279;SDS011;5696;50.928;6.960;2022-08-23T07:14:51;6.88;;;4.88;;
11279;SDS011;5696;50.928;6.960;2022-08-23T07:17:17;6.18;;;4.28;;
11279;SDS011;5696;50.928;6.960;2022-08-23T07:19:43;4.35;;;3.80;;
11279;SDS011;5696;50.928;6.960;2022-08-23T07:22:09;6.57;;;4.10;;
11279;SDS011;5696;50.928;6.960;2022-08-23T07:24:36;7.88;;;5.32;;
11279;SDS011;5696;50.928;6.960;2022-08-23T07:27:02;5.63;;;4.22;;
11279;SDS011;5696;50.928;6.960;2022-08-23T07:29:31;6.47;;;4.18;;
11279;SDS011;5696;50.928;6.960;2022-08-23T07:31:57;5.03;;;4.45;;
11279;SDS011;5696;50.928;6.960;2022-08-23T07:34:24;7.43;;;4.00;;
11279;SDS011;5696;50.928;6.960;2022-08-23T07:36:50;6.75;;;4.22;;
11279;SDS011;5696;50.928;6.960;2022-08-23T07:39:17;7.25;;;4.15;;
11279;SDS011;5696;50.928;6.960;2022-08-23T07:41:44;6.45;;;4.47;;
11279;SDS011;5696;50.928;6.960;2022-08-23T07:44:11;7.90;;;4.85;;
11279;SDS011;5696;50.928;6.960;2022-08-23T07:46:38;6.60;;;4.22;;
11279;SDS011;5696;50.928;6.960;2022-08-23T07:49:06;6.07;;;4.40;;
11279;SDS011;5696;50.928;6.960;2022-08-23T07:51:34;9.18;;;4.53;;
11279;SDS011;5696;50.928;6.960;2022-08-23T07:54:01;5.53;;;4.55;;
11279;SDS011;5696;50.928;6.960;2022-08-23T07:56:29;4.63;;;3.83;;
11279;SDS011;5696;50.928;6.960;2022-08-23T07:58:55;6.45;;;5.43;;
11279;SDS011;5696;50.928;6.960;2022-08-23T08:01:22;7.15;;;4.75;;
11279;SDS011;5696;50.928;6.960;2022-08-23T08:03:51;6.35;;;4.38;;
11279;SDS011;5696;50.928;6.960;2022-08-23T08:06:23;6.18;;;4.80;;
11279;SDS011;5696;50.928;6.960;2022-08-23T08:08:57;7.03;;;4.78;;
11279;SDS011;5696;50.928;6.960;2022-08-23T08:11:25;6.78;;;4.70;;
11279;SDS011;5696;50.928;6.960;2022-08-23T08:13:53;6.10;;;4.75;;
11279;SDS011;5696;50.928;6.960;2022-08-23T08:16:20;7.07;;;4.47;;
11279;SDS011;5696;50.928;6.960;2022-08-23T08:18:53;6.13;;;5.15;;
11279;SDS011;5696;50.928;6.960;2022-08-23T08:21:19;8.18;;;4.30;;
11279;SDS011;5696;50.928;6.960;2022-08-23T08:23:46;7.35;;;4.57;;
11279;SDS011;5696;50.928;6.960;2022-08-23T08:26:11;6.60;;;5.15;;
11279;SDS011;5696;50.928;6.960;2022-08-23T08:28:37;7.28;;;4.57;;
11279;SDS011;5696;50.928;6.960;2022-08-23T08:31:04;6.97;;;4.45;;
11279;SDS011;5696;50.928;6.960;2022-08-23T08:33:31;9.13;;;4.72;;
11279;SDS011;5696;50.928;6.960;2022-08-23T08:35:57;9.07;;;4.32;;
11279;SDS011;5696;50.928;6.960;2022-08-23T08:38:36;8.50;;;5.65;;
11279;SDS011;5696;50.928;6.960;2022-08-23T08:41:06;7.13;;;4.28;;
11279;SDS011;5696;50.928;6.960;2022-08-23T08:43:52;11.40;;;5.00;;
11279;SDS011;5696;50.928;6.960;2022-08-23T08:46:49;8.60;;;4.97;;
11279;SDS011;5696;50.928;6.960;2022-08-23T08:49:21;10.00;;;4.20;;
11279;SDS011;5696;50.928;6.960;2022-08-23T08:52:02;6.60;;;4.05;;
11279;SDS011;5696;50.928;6.960;2022-08-23T08:54:49;7.97;;;4.55;;
11279;SDS011;5696;50.928;6.960;2022-08-23T08:57:30;6.43;;;4.25;;
11279;SDS011;5696;50.928;6.960;2022-08-23T09:00:07;5.55;;;4.15;;
11279;SDS011;5696;50.928;6.960;2022-08-23T09:02:38;5.60;;;4.18;;
11279;SDS011;5696;50.928;6.960;2022-08-23T09:05:11;7.15;;;4.50;;
11279;SDS011;5696;50.928;6.960;2022-08-23T09:19:03;5.22;;;4.65;;
11279;SDS011;5696;50.928;6.960;2022-08-23T09:21:33;5.07;;;4.22;;
11279;SDS011;5696;50.928;6.960;2022-08-23T09:24:06;6.40;;;4.07;;
11279;SDS011;5696;50.928;6.960;2022-08-23T09:26:32;7.93;;;4.70;;
11279;SDS011;5696;50.928;6.960;2022-08-23T09:28:59;6.65;;;4.07;;
11279;SDS011;5696;50.928;6.960;2022-08-23T09:31:36;7.35;;;4.63;;
11279;SDS011;5696;50.928;6.960;2022-08-23T09:34:07;6.32;;;4.30;;
11279;SDS011;5696;50.928;6.960;2022-08-23T09:36:35;6.63;;;4.07;;
11279;SDS011;5696;50.928;6.960;2022-08-23T09:39:05;5.97;;;4.55;;
11279;SDS011;5696;50.928;6.960;2022-08-23T09:41:34;7.20;;;4.30;;
11279;SDS011;5696;50.928;6.960;2022-08-23T09:44:03;6.90;;;4.35;;
11279;SDS011;5696;50.928;6.960;2022-08-23T09:46:33;7.00;;;4.15;;
11279;SDS011;5696;50.928;6.960;2022-08-23T09:52:00;7.70;;;4.53;;
11279;SDS011;5696;50.928;6.960;2022-08-23T09:54:35;8.02;;;4.35;;
11279;SDS011;5696;50.928;6.960;2022-08-23T09:57:03;7.75;;;5.28;;
11279;SDS011;5696;50.928;6.960;2022-08-23T10:01:56;6.47;;;4.30;;
11279;SDS011;5696;50.928;6.960;2022-08-23T10:07:19;6.60;;;4.38;;
11279;SDS011;5696;50.928;6.960;2022-08-23T10:10:11;12.05;;;5.32;;
11279;SDS011;5696;50.928;6.960;2022-08-23T10:12:56;7.68;;;4.30;;
11279;SDS011;5696;50.928;6.960;2022-08-23T10:15:25;9.95;;;4.35;;
11279;SDS011;5696;50.928;6.960;2022-08-23T10:18:46;7.18;;;4.53;;
11279;SDS011;5696;50.928;6.960;2022-08-23T10:26:29;8.45;;;4.85;;
11279;SDS011;5696;50.928;6.960;2022-08-23T10:31:53;8.88;;;4.78;;
11279;SDS011;5696;50.928;6.960;2022-08-23T10:39:37;11.02;;;5.22;;
11279;SDS011;5696;50.928;6.960;2022-08-23T10:47:49;7.78;;;3.88;;
11279;SDS011;5696;50.928;6.960;2022-08-23T10:50:45;6.30;;;4.30;;
11279;SDS011;5696;50.928;6.960;2022-08-23T10:53:18;7.38;;;4.10;;
11279;SDS011;5696;50.928;6.960;2022-08-23T10:58:42;7.47;;;4.38;;
11279;SDS011;5696;50.928;6.960;2022-08-23T11:01:13;22.42;;;5.15;;
11279;SDS011;5696;50.928;6.960;2022-08-23T11:03:43;12.25;;;10.65;;
11279;SDS011;5696;50.928;6.960;2022-08-23T11:06:47;19.25;;;17.17;;
11279;SDS011;5696;50.928;6.960;2022-08-23T11:17:29;9.07;;;4.22;;
11279;SDS011;5696;50.928;6.960;2022-08-23T11:20:00;8.35;;;3.95;;
11279;SDS011;5696;50.928;6.960;2022-08-23T11:22:33;7.03;;;4.32;;
11279;SDS011;5696;50.928;6.960;2022-08-23T11:27:46;5.68;;;4.05;;
11279;SDS011;5696;50.928;6.960;2022-08-23T11:33:07;6.45;;;3.50;;
11279;SDS011;5696;50.928;6.960;2022-08-23T11:35:39;6.03;;;3.60;;
11279;SDS011;5696;50.928;6.960;2022-08-23T11:38:12;5.85;;;3.03;;
11279;SDS011;5696;50.928;6.960;2022-08-23T11:46:12;4.72;;;3.10;;
11279;SDS011;5696;50.928;6.960;2022-08-23T11:48:41;5.70;;;3.33;;
11279;SDS011;5696;50.928;6.960;2022-08-23T12:04:56;8.73;;;3.88;;
11279;SDS011;5696;50.928;6.960;2022-08-23T12:18:30;7.43;;;3.70;;
11279;SDS011;5696;50.928;6.960;2022-08-23T12:21:26;4.63;;;4.15;;
11279;SDS011;5696;50.928;6.960;2022-08-23T12:29:36;13.65;;;7.55;;
11279;SDS011;5696;50.928;6.960;2022-08-23T12:35:09;3.65;;;3.22;;
11279;SDS011;5696;50.928;6.960;2022-08-23T12:38:02;9.15;;;5.75;;
11279;SDS011;5696;50.928;6.960;2022-08-23T12:40:45;9.38;;;3.50;;
11279;SDS011;5696;50.928;6.960;2022-08-23T12:43:18;3.25;;;2.95;;
11279;SDS011;5696;50.928;6.960;2022-08-23T12:45:56;7.68;;;4.00;;
11279;SDS011;5696;50.928;6.960;2022-08-23T12:48:27;4.47;;;3.03;;
11279;SDS011;5696;50.928;6.960;2022-08-23T12:50:59;7.70;;;3.38;;
11279;SDS011;5696;50.928;6.960;2022-08-23T12:53:29;5.45;;;3.22;;
11279;SDS011;5696;50.928;6.960;2022-08-23T12:55:59;5.55;;;3.20;;
11279;SDS011;5696;50.928;6.960;2022-08-23T12:58:33;6.68;;;3.38;;
11279;SDS011;5696;50.928;6.960;2022-08-23T13:01:03;4.43;;;3.20;;
11279;SDS011;5696;50.928;6.960;2022-08-23T13:03:51;5.93;;;3.47;;
11279;SDS011;5696;50.928;6.960;2022-08-23T13:06:25;10.80;;;3.95;;
11279;SDS011;5696;50.928;6.960;2022-08-23T13:08:57;6.13;;;3.30;;
11279;SDS011;5696;50.928;6.960;2022-08-23T13:11:28;7.10;;;3.35;;
11279;SDS011;5696;50.928;6.960;2022-08-23T13:13:57;5.68;;;3.35;;
11279;SDS011;5696;50.928;6.960;2022-08-23T13:16:30;7.05;;;3.70;;
11279;SDS011;5696;50.928;6.960;2022-08-23T13:21:46;6.72;;;3.40;;
11279;SDS011;5696;50.928;6.960;2022-08-23T13:24:26;5.32;;;3.10;;
11279;SDS011;5696;50.928;6.960;2022-08-23T13:27:17;8.95;;;3.85;;
11279;SDS011;5696;50.928;6.960;2022-08-23T13:29:55;7.30;;;3.30;;
11279;SDS011;5696;50.928;6.960;2022-08-23T13:32:34;4.57;;;3.55;;
11279;SDS011;5696;50.928;6.960;2022-08-23T13:37:53;6.93;;;3.47;;
11279;SDS011;5696;50.928;6.960;2022-08-23T13:40:25;4.50;;;3.25;;
11279;SDS011;5696;50.928;6.960;2022-08-23T13:43:04;7.78;;;3.47;;
11279;SDS011;5696;50.928;6.960;2022-08-23T13:45:49;5.85;;;3.05;;
11279;SDS011;5696;50.928;6.960;2022-08-23T13:48:21;4.65;;;3.15;;
11279;SDS011;5696;50.928;6.960;2022-08-23T13:53:43;4.25;;;3.20;;
11279;SDS011;5696;50.928;6.960;2022-08-23T13:56:09;8.32;;;3.72;;
11279;SDS011;5696;50.928;6.960;2022-08-23T13:58:35;7.05;;;3.80;;
11279;SDS011;5696;50.928;6.960;2022-08-23T14:01:01;7.78;;;3.30;;
11279;SDS011;5696;50.928;6.960;2022-08-23T14:03:29;6.30;;;3.22;;
11279;SDS011;5696;50.928;6.960;2022-08-23T14:05:58;3.85;;;3.40;;
11279;SDS011;5696;50.928;6.960;2022-08-23T14:08:24;6.18;;;3.67;;
11279;SDS011;5696;50.928;6.960;2022-08-23T14:10:50;8.15;;;3.25;;
11279;SDS011;5696;50.928;6.960;2022-08-23T14:13:16;6.00;;;3.40;;
11279;SDS011;5696;50.928;6.960;2022-08-23T14:15:44;3.10;;;2.80;;
11279;SDS011;5696;50.928;6.960;2022-08-23T14:18:10;7.10;;;3.28;;
11279;SDS011;5696;50.928;6.960;2022-08-23T14:20:36;7.43;;;3.28;;
11279;SDS011;5696;50.928;6.960;2022-08-23T14:23:02;6.70;;;2.97;;
11279;SDS011;5696;50.928;6.960;2022-08-23T14:25:28;5.15;;;3.80;;
11279;SDS011;5696;50.928;6.960;2022-08-23T14:27:55;3.20;;;2.58;;
11279;SDS011;5696;50.928;6.960;2022-08-23T14:30:26;3.58;;;2.55;;
11279;SDS011;5696;50.928;6.960;2022-08-23T14:32:54;3.55;;;2.53;;
11279;SDS011;5696;50.928;6.960;2022-08-23T14:35:19;7.20;;;2.90;;
11279;SDS011;5696;50.928;6.960;2022-08-23T14:37:55;6.35;;;2.72;;
11279;SDS011;5696;50.928;6.960;2022-08-23T14:40:21;5.97;;;3.45;;
11279;SDS011;5696;50.928;6.960;2022-08-23T14:42:47;3.30;;;2.63;;
11279;SDS011;5696;50.928;6.960;2022-08-23T14:45:23;3.22;;;2.22;;
11279;SDS011;5696;50.928;6.960;2022-08-23T14:47:48;6.47;;;3.15;;
11279;SDS011;5696;50.928;6.960;2022-08-23T14:50:14;3.83;;;2.60;;
11279;SDS011;5696;50.928;6.960;2022-08-23T14:52:50;10.35;;;2.90;;
11279;SDS011;5696;50.928;6.960;2022-08-23T14:55:15;4.10;;;2.83;;
11279;SDS011;5696;50.928;6.960;2022-08-23T14:57:41;4.90;;;2.70;;
11279;SDS011;5696;50.928;6.960;2022-08-23T15:00:07;19.92;;;13.10;;
11279;SDS011;5696;50.928;6.960;2022-08-23T15:02:44;5.88;;;2.67;;
11279;SDS011;5696;50.928;6.960;2022-08-23T15:05:11;4.65;;;2.45;;
11279;SDS011;5696;50.928;6.960;2022-08-23T15:07:39;5.50;;;2.80;;
11279;SDS011;5696;50.928;6.960;2022-08-23T15:10:05;6.28;;;3.00;;
11279;SDS011;5696;50.928;6.960;2022-08-23T15:12:31;4.82;;;2.60;;
11279;SDS011;5696;50.928;6.960;2022-08-23T15:14:57;3.05;;;2.30;;
11279;SDS011;5696;50.928;6.960;2022-08-23T15:17:23;3.78;;;2.15;;
11279;SDS011;5696;50.928;6.960;2022-08-23T15:19:48;9.38;;;2.80;;
11279;SDS011;5696;50.928;6.960;2022-08-23T15:22:14;5.10;;;2.85;;
11279;SDS011;5696;50.928;6.960;2022-08-23T15:24:40;5.20;;;3.00;;
11279;SDS011;5696;50.928;6.960;2022-08-23T15:27:06;3.67;;;2.70;;
11279;SDS011;5696;50.928;6.960;2022-08-23T15:29:32;7.57;;;3.30;;
11279;SDS011;5696;50.928;6.960;2022-08-23T15:31:58;3.35;;;2.40;;
11279;SDS011;5696;50.928;6.960;2022-08-23T15:34:24;5.07;;;2.67;;
11279;SDS011;5696;50.928;6.960;2022-08-23T15:36:49;5.03;;;2.70;;
11279;SDS011;5696;50.928;6.960;2022-08-23T15:39:15;8.55;;;2.88;;
11279;SDS011;5696;50.928;6.960;2022-08-23T15:41:41;4.47;;;2.15;;
11279;SDS011;5696;50.928;6.960;2022-08-23T15:44:07;7.63;;;2.28;;
11279;SDS011;5696;50.928;6.960;2022-08-23T15:46:33;5.40;;;2.72;;
11279;SDS011;5696;50.928;6.960;2022-08-23T15:49:02;4.63;;;2.47;;
11279;SDS011;5696;50.928;6.960;2022-08-23T15:51:33;4.68;;;2.50;;
11279;SDS011;5696;50.928;6.960;2022-08-23T15:53:59;3.95;;;2.28;;
11279;SDS011;5696;50.928;6.960;2022-08-23T15:56:30;8.45;;;2.42;;
11279;SDS011;5696;50.928;6.960;2022-08-23T15:58:59;5.95;;;2.38;;
11279;SDS011;5696;50.928;6.960;2022-08-23T16:01:25;3.83;;;2.42;;
11279;SDS011;5696;50.928;6.960;2022-08-23T16:03:54;5.85;;;2.67;;
11279;SDS011;5696;50.928;6.960;2022-08-23T16:06:20;4.40;;;2.50;;
11279;SDS011;5696;50.928;6.960;2022-08-23T16:08:47;4.22;;;2.40;;
11279;SDS011;5696;50.928;6.960;2022-08-23T16:11:15;3.30;;;2.30;;
11279;SDS011;5696;50.928;6.960;2022-08-23T16:13:42;3.92;;;2.60;;
11279;SDS011;5696;50.928;6.960;2022-08-23T16:16:14;4.68;;;2.30;;
11279;SDS011;5696;50.928;6.960;2022-08-23T16:18:44;3.30;;;2.20;;
11279;SDS011;5696;50.928;6.960;2022-08-23T16:21:10;9.10;;;2.40;;
11279;SDS011;5696;50.928;6.960;2022-08-23T16:23:37;5.50;;;2.30;;
11279;SDS011;5696;50.928;6.960;2022-08-23T16:26:08;5.35;;;3.55;;
11279;SDS011;5696;50.928;6.960;2022-08-23T16:28:37;2.60;;;2.17;;
11279;SDS011;5696;50.928;6.960;2022-08-23T16:31:02;4.53;;;2.30;;
11279;SDS011;5696;50.928;6.960;2022-08-23T16:33:28;6.90;;;2.38;;
11279;SDS011;5696;50.928;6.960;2022-08-23T16:35:53;6.43;;;2.33;;
11279;SDS011;5696;50.928;6.960;2022-08-23T16:38:19;3.72;;;2.50;;
11279;SDS011;5696;50.928;6.960;2022-08-23T16:40:45;6.15;;;3.10;;
11279;SDS011;5696;50.928;6.960;2022-08-23T16:43:10;5.20;;;2.38;;
11279;SDS011;5696;50.928;6.960;2022-08-23T16:45:36;4.50;;;2.38;;
11279;SDS011;5696;50.928;6.960;2022-08-23T16:48:02;3.15;;;2.30;;
11279;SDS011;5696;50.928;6.960;2022-08-23T16:50:27;4.63;;;2.92;;
11279;SDS011;5696;50.928;6.960;2022-08-23T16:52:56;5.05;;;2.60;;
11279;SDS011;5696;50.928;6.960;2022-08-23T16:55:22;2.85;;;2.55;;
11279;SDS011;5696;50.928;6.960;2022-08-23T16:57:48;3.63;;;2.65;;
11279;SDS011;5696;50.928;6.960;2022-08-23T17:00:14;3.90;;;2.30;;
11279;SDS011;5696;50.928;6.960;2022-08-23T17:02:41;5.97;;;2.58;;
11279;SDS011;5696;50.928;6.960;2022-08-23T17:05:08;4.57;;;2.63;;
11279;SDS011;5696;50.928;6.960;2022-08-23T17:07:36;5.95;;;3.13;;
11279;SDS011;5696;50.928;6.960;2022-08-23T17:10:03;6.20;;;2.08;;
11279;SDS011;5696;50.928;6.960;2022-08-23T17:12:30;5.82;;;2.63;;
11279;SDS011;5696;50.928;6.960;2022-08-23T17:14:58;8.38;;;2.65;;
11279;SDS011;5696;50.928;6.960;2022-08-23T17:17:23;7.28;;;2.28;;
11279;SDS011;5696;50.928;6.960;2022-08-23T17:19:49;4.50;;;2.30;;
11279;SDS011;5696;50.928;6.960;2022-08-23T17:22:15;4.50;;;2.13;;
11279;SDS011;5696;50.928;6.960;2022-08-23T17:24:41;3.40;;;2.00;;
11279;SDS011;5696;50.928;6.960;2022-08-23T17:27:07;6.70;;;2.22;;
11279;SDS011;5696;50.928;6.960;2022-08-23T17:29:32;5.32;;;2.47;;
11279;SDS011;5696;50.928;6.960;2022-08-23T17:31:59;3.35;;;2.30;;
11279;SDS011;5696;50.928;6.960;2022-08-23T17:34:24;4.78;;;2.20;;
11279;SDS011;5696;50.928;6.960;2022-08-23T17:36:51;3.92;;;2.03;;
11279;SDS011;5696;50.928;6.960;2022-08-23T17:39:20;3.88;;;2.25;;
11279;SDS011;5696;50.928;6.960;2022-08-23T17:41:48;3.47;;;2.17;;
11279;SDS011;5696;50.928;6.960;2022-08-23T17:44:14;4.53;;;2.40;;
11279;SDS011;5696;50.928;6.960;2022-08-23T17:46:42;7.15;;;2.40;;
11279;SDS011;5696;50.928;6.960;2022-08-23T17:49:09;3.72;;;2.55;;
11279;SDS011;5696;50.928;6.960;2022-08-23T17:51:36;5.75;;;2.30;;
11279;SDS011;5696;50.928;6.960;2022-08-23T17:54:05;5.47;;;2.42;;
11279;SDS011;5696;50.928;6.960;2022-08-23T17:56:31;3.65;;;2.95;;
11279;SDS011;5696;50.928;6.960;2022-08-23T17:58:58;6.13;;;2.80;;
11279;SDS011;5696;50.928;6.960;2022-08-23T18:01:24;6.70;;;2.15;;
11279;SDS011;5696;50.928;6.960;2022-08-23T18:03:51;2.95;;;2.45;;
11279;SDS011;5696;50.928;6.960;2022-08-23T18:06:17;3.78;;;2.35;;
11279;SDS011;5696;50.928;6.960;2022-08-23T18:08:43;4.50;;;2.80;;
11279;SDS011;5696;50.928;6.960;2022-08-23T18:11:10;3.80;;;2.60;;
11279;SDS011;5696;50.928;6.960;2022-08-23T18:13:36;4.45;;;2.45;;
11279;SDS011;5696;50.928;6.960;2022-08-23T18:16:02;4.03;;;2.25;;
11279;SDS011;5696;50.928;6.960;2022-08-23T18:18:28;3.40;;;2.10;;
11279;SDS011;5696;50.928;6.960;2022-08-23T18:20:54;2.75;;;2.20;;
11279;SDS011;5696;50.928;6.960;2022-08-23T18:23:20;4.20;;;2.40;;
11279;SDS011;5696;50.928;6.960;2022-08-23T18:25:45;5.07;;;2.30;;
11279;SDS011;5696;50.928;6.960;2022-08-23T18:28:16;4.63;;;2.35;;
11279;SDS011;5696;50.928;6.960;2022-08-23T18:33:16;4.15;;;2.25;;
11279;SDS011;5696;50.928;6.960;2022-08-23T18:35:43;4.78;;;2.22;;
11279;SDS011;5696;50.928;6.960;2022-08-23T18:38:10;5.40;;;2.47;;
11279;SDS011;5696;50.928;6.960;2022-08-23T18:40:36;4.32;;;2.35;;
11279;SDS011;5696;50.928;6.960;2022-08-23T18:43:21;4.68;;;2.58;;
11279;SDS011;5696;50.928;6.960;2022-08-23T18:45:49;5.68;;;2.83;;
11279;SDS011;5696;50.928;6.960;2022-08-23T18:48:17;3.88;;;2.50;;
11279;SDS011;5696;50.928;6.960;2022-08-23T18:50:43;3.58;;;2.45;;
11279;SDS011;5696;50.928;6.960;2022-08-23T18:53:10;6.47;;;2.80;;
11279;SDS011;5696;50.928;6.960;2022-08-23T18:55:36;7.43;;;2.30;;
11279;SDS011;5696;50.928;6.960;2022-08-23T18:58:03;3.70;;;2.45;;
11279;SDS011;5696;50.928;6.960;2022-08-23T19:00:28;7.97;;;3.47;;
11279;SDS011;5696;50.928;6.960;2022-08-23T19:02:55;5.85;;;2.55;;
11279;SDS011;5696;50.928;6.960;2022-08-23T19:05:22;4.43;;;2.40;;
11279;SDS011;5696;50.928;6.960;2022-08-23T19:07:47;4.30;;;2.70;;
11279;SDS011;5696;50.928;6.960;2022-08-23T19:10:13;3.95;;;2.45;;
11279;SDS011;5696;50.928;6.960;2022-08-23T19:12:49;3.55;;;2.83;;
11279;SDS011;5696;50.928;6.960;2022-08-23T19:15:15;4.75;;;3.03;;
11279;SDS011;5696;50.928;6.960;2022-08-23T19:17:42;5.10;;;2.83;;
11279;SDS011;5696;50.928;6.960;2022-08-23T19:20:08;6.43;;;3.03;;
11279;SDS011;5696;50.928;6.960;2022-08-23T19:22:35;4.65;;;3.00;;
11279;SDS011;5696;50.928;6.960;2022-08-23T19:25:01;4.32;;;3.00;;
11279;SDS011;5696;50.928;6.960;2022-08-23T19:27:28;6.55;;;2.60;;
11279;SDS011;5696;50.928;6.960;2022-08-23T19:29:54;9.70;;;3.30;;
11279;SDS011;5696;50.928;6.960;2022-08-23T19:32:20;4.70;;;3.47;;
11279;SDS011;5696;50.928;6.960;2022-08-23T19:34:45;5.55;;;3.53;;
11279;SDS011;5696;50.928;6.960;2022-08-23T19:37:14;5.45;;;3.13;;
11279;SDS011;5696;50.928;6.960;2022-08-23T19:39:40;4.93;;;3.30;;
11279;SDS011;5696;50.928;6.960;2022-08-23T19:42:06;4.55;;;3.10;;
11279;SDS011;5696;50.928;6.960;2022-08-23T19:44:32;8.10;;;3.47;;
11279;SDS011;5696;50.928;6.960;2022-08-23T19:47:02;5.95;;;3.33;;
11279;SDS011;5696;50.928;6.960;2022-08-23T19:49:29;5.53;;;3.75;;
11279;SDS011;5696;50.928;6.960;2022-08-23T19:51:56;6.13;;;3.70;;
11279;SDS011;5696;50.928;6.960;2022-08-23T19:54:22;7.55;;;3.90;;
11279;SDS011;5696;50.928;6.960;2022-08-23T19:56:50;7.45;;;3.80;;
11279;SDS011;5696;50.928;6.960;2022-08-23T19:59:32;8.13;;;3.72;;
11279;SDS011;5696;50.928;6.960;2022-08-23T20:02:01;6.70;;;4.20;;
11279;SDS011;5696;50.928;6.960;2022-08-23T20:04:28;6.38;;;3.38;;
11279;SDS011;5696;50.928;6.960;2022-08-23T20:06:55;8.43;;;3.80;;
11279;SDS011;5696;50.928;6.960;2022-08-23T20:09:23;6.68;;;3.50;;
11279;SDS011;5696;50.928;6.960;2022-08-23T20:11:50;6.32;;;3.88;;
11279;SDS011;5696;50.928;6.960;2022-08-23T20:14:19;6.28;;;3.75;;
11279;SDS011;5696;50.928;6.960;2022-08-23T20:16:46;4.68;;;3.20;;
11279;SDS011;5696;50.928;6.960;2022-08-23T20:19:11;7.80;;;4.20;;
11279;SDS011;5696;50.928;6.960;2022-08-23T20:21:38;7.75;;;4.13;;
11279;SDS011;5696;50.928;6.960;2022-08-23T20:24:05;6.00;;;3.72;;
11279;SDS011;5696;50.928;6.960;2022-08-23T20:26:44;7.53;;;3.90;;
11279;SDS011;5696;50.928;6.960;2022-08-23T20:29:12;4.65;;;3.25;;
11279;SDS011;5696;50.928;6.960;2022-08-23T20:31:56;5.97;;;4.00;;
11279;SDS011;5696;50.928;6.960;2022-08-23T20:34:24;7.03;;;4.20;;
11279;SDS011;5696;50.928;6.960;2022-08-23T20:36:52;9.20;;;5.43;;
11279;SDS011;5696;50.928;6.960;2022-08-23T20:39:20;5.47;;;3.70;;
11279;SDS011;5696;50.928;6.960;2022-08-23T20:41:46;7.63;;;4.50;;
11279;SDS011;5696;50.928;6.960;2022-08-23T20:44:12;11.63;;;4.95;;
11279;SDS011;5696;50.928;6.960;2022-08-23T20:46:39;10.77;;;4.97;;
11279;SDS011;5696;50.928;6.960;2022-08-23T20:49:05;7.18;;;4.60;;
11279;SDS011;5696;50.928;6.960;2022-08-23T20:51:31;8.18;;;4.40;;
11279;SDS011;5696;50.928;6.960;2022-08-23T20:53:57;6.60;;;4.35;;
11279;SDS011;5696;50.928;6.960;2022-08-23T20:56:24;5.22;;;4.38;;
11279;SDS011;5696;50.928;6.960;2022-08-23T20:58:52;8.80;;;5.00;;
11279;SDS011;5696;50.928;6.960;2022-08-23T21:01:19;9.15;;;4.30;;
11279;SDS011;5696;50.928;6.960;2022-08-23T21:03:45;6.15;;;4.30;;
11279;SDS011;5696;50.928;6.960;2022-08-23T21:06:15;13.07;;;4.72;;
11279;SDS011;5696;50.928;6.960;2022-08-23T21:08:45;10.52;;;4.38;;
11279;SDS011;5696;50.928;6.960;2022-08-23T21:11:13;6.93;;;4.55;;
11279;SDS011;5696;50.928;6.960;2022-08-23T21:13:39;7.53;;;4.53;;
11279;SDS011;5696;50.928;6.960;2022-08-23T21:16:08;7.68;;;5.03;;
11279;SDS011;5696;50.928;6.960;2022-08-23T21:18:35;6.63;;;5.68;;
11279;SDS011;5696;50.928;6.960;2022-08-23T21:21:00;8.60;;;5.43;;
11279;SDS011;5696;50.928;6.960;2022-08-23T21:23:26;11.27;;;6.20;;
11279;SDS011;5696;50.928;6.960;2022-08-23T21:25:52;11.02;;;6.20;;
11279;SDS011;5696;50.928;6.960;2022-08-23T21:28:19;7.78;;;5.10;;
11279;SDS011;5696;50.928;6.960;2022-08-23T21:30:45;9.82;;;5.80;;
11279;SDS011;5696;50.928;6.960;2022-08-23T21:33:11;12.35;;;6.35;;
11279;SDS011;5696;50.928;6.960;2022-08-23T21:35:36;12.45;;;5.97;;
11279;SDS011;5696;50.928;6.960;2022-08-23T21:38:02;9.52;;;6.10;;
11279;SDS011;5696;50.928;6.960;2022-08-23T21:40:28;8.05;;;5.15;;
11279;SDS011;5696;50.928;6.960;2022-08-23T21:42:55;7.95;;;4.43;;
11279;SDS011;5696;50.928;6.960;2022-08-23T21:45:20;8.45;;;4.93;;
11279;SDS011;5696;50.928;6.960;2022-08-23T21:47:46;7.45;;;4.43;;
11279;SDS011;5696;50.928;6.960;2022-08-23T21:50:12;8.68;;;4.55;;
11279;SDS011;5696;50.928;6.960;2022-08-23T21:52:39;8.45;;;4.60;;
11279;SDS011;5696;50.928;6.960;2022-08-23T21:55:05;9.30;;;5.45;;
11279;SDS011;5696;50.928;6.960;2022-08-23T21:57:31;8.70;;;5.20;;
11279;SDS011;5696;50.928;6.960;2022-08-23T21:59:58;8.30;;;5.72;;